createdAt,value
2022-11-14T00:01:19.406Z,55.33
2022-11-14T00:04:05.468Z,55.39
2022-11-14T00:06:51.513Z,55.40
2022-11-14T00:09:40.613Z,55.33
2022-11-14T00:12:27.277Z,55.50
2022-11-14T00:15:14.183Z,55.48
2022-11-14T00:18:03.974Z,55.27
2022-11-14T00:20:51.962Z,55.32
2022-11-14T00:23:38.349Z,55.39
2022-11-14T00:26:24.630Z,55.28
2022-11-14T00:29:15.956Z,55.46
2022-11-14T00:32:02.712Z,55.42
2022-11-14T00:34:49.826Z,55.29
2022-11-14T00:37:36.139Z,55.18
2022-11-14T00:40:22.726Z,55.44
2022-11-14T00:43:08.991Z,55.34
2022-11-14T00:45:55.645Z,55.44
2022-11-14T00:48:42.403Z,55.54
2022-11-14T00:51:28.645Z,55.52
2022-11-14T00:54:15.076Z,55.34
2022-11-14T00:57:01.190Z,55.39
2022-11-14T00:59:47.366Z,55.73
2022-11-14T01:02:33.940Z,55.36
2022-11-14T01:05:20.218Z,55.89
2022-11-14T01:08:06.203Z,55.47
2022-11-14T01:10:52.684Z,55.71
2022-11-14T01:13:39.371Z,55.74
2022-11-14T01:16:30.349Z,55.69
2022-11-14T01:19:16.733Z,55.48
2022-11-14T01:22:06.403Z,55.55
2022-11-14T01:24:55.277Z,55.84
2022-11-14T01:27:41.646Z,55.61
2022-11-14T01:30:27.677Z,55.40
2022-11-14T01:33:14.221Z,55.75
2022-11-14T01:36:00.421Z,55.81
2022-11-14T01:38:51.595Z,56.02
2022-11-14T01:41:37.756Z,55.87
2022-11-14T01:44:43.024Z,56.20
2022-11-14T01:47:32.272Z,56.22
2022-11-14T01:50:19.209Z,56.26
2022-11-14T01:53:05.373Z,55.78
2022-11-14T01:55:53.881Z,55.70
2022-11-14T01:58:43.874Z,56.31
2022-11-14T02:01:34.330Z,55.53
2022-11-14T02:04:31.861Z,56.27
2022-11-14T02:07:19.209Z,56.01
2022-11-14T02:10:10.276Z,56.04
2022-11-14T02:12:56.800Z,55.88
2022-11-14T02:15:43.267Z,56.34
2022-11-14T02:18:29.731Z,56.29
2022-11-14T02:21:16.045Z,56.21
2022-11-14T02:24:02.686Z,55.96
2022-11-14T02:26:51.048Z,55.68
2022-11-14T02:29:37.349Z,56.00
2022-11-14T02:32:24.022Z,55.83
2022-11-14T02:35:11.660Z,56.24
2022-11-14T02:37:57.898Z,56.27
2022-11-14T02:40:43.914Z,56.24
2022-11-14T02:43:30.130Z,55.86
2022-11-14T02:46:16.218Z,55.88
2022-11-14T02:49:02.436Z,55.93
2022-11-14T02:51:48.769Z,55.90
2022-11-14T02:54:34.907Z,56.06
2022-11-14T02:57:21.185Z,55.81
2022-11-14T03:00:14.385Z,56.08
2022-11-14T03:03:01.153Z,56.00
2022-11-14T03:05:47.471Z,56.32
2022-11-14T03:08:34.119Z,56.46
2022-11-14T03:11:20.455Z,56.00
2022-11-14T03:14:06.881Z,56.06
2022-11-14T03:16:55.579Z,56.08
2022-11-14T03:19:42.276Z,55.94
2022-11-14T03:22:28.253Z,55.95
2022-11-14T03:25:14.682Z,56.04
2022-11-14T03:28:01.073Z,56.15
2022-11-14T03:30:47.303Z,56.30
2022-11-14T03:33:34.824Z,56.39
2022-11-14T03:36:21.588Z,56.39
2022-11-14T03:39:07.767Z,56.14
2022-11-14T03:41:54.336Z,56.34
2022-11-14T03:44:40.693Z,56.39
2022-11-14T03:47:27.901Z,56.43
2022-11-14T03:50:14.428Z,56.70
2022-11-14T03:53:01.386Z,57.22
2022-11-14T03:55:47.912Z,56.97
2022-11-14T03:58:34.548Z,57.20
2022-11-14T04:01:20.910Z,56.94
2022-11-14T04:04:07.438Z,56.96
2022-11-14T04:06:53.504Z,57.07
2022-11-14T04:09:40.255Z,57.10
2022-11-14T04:12:26.839Z,56.88
2022-11-14T04:15:12.963Z,56.96
2022-11-14T04:18:00.091Z,57.30
2022-11-14T04:20:46.437Z,57.17
2022-11-14T04:23:32.718Z,57.19
2022-11-14T04:26:18.987Z,57.32
2022-11-14T04:29:05.312Z,57.11
2022-11-14T04:31:51.811Z,57.17
2022-11-14T04:34:39.379Z,57.44
2022-11-14T04:37:25.739Z,57.48
2022-11-14T04:40:12.460Z,57.13
2022-11-14T04:42:58.777Z,57.10
2022-11-14T04:45:45.169Z,57.64
2022-11-14T04:48:31.617Z,57.12
2022-11-14T04:51:18.145Z,57.31
2022-11-14T04:54:07.157Z,57.49
2022-11-14T04:56:53.231Z,57.60
2022-11-14T04:59:39.776Z,57.54
2022-11-14T05:02:25.992Z,57.28
2022-11-14T05:05:12.180Z,57.28
2022-11-14T05:08:01.233Z,57.11
2022-11-14T05:10:47.543Z,57.37
2022-11-14T05:13:34.018Z,57.52
2022-11-14T05:16:20.557Z,57.62
2022-11-14T05:19:06.417Z,58.43
2022-11-14T05:21:53.948Z,57.87
2022-11-14T05:24:40.312Z,57.77
2022-11-14T05:27:26.384Z,57.78
2022-11-14T05:30:16.179Z,57.74
2022-11-14T05:33:02.726Z,57.60
2022-11-14T05:35:48.962Z,57.46
2022-11-14T05:38:35.696Z,57.36
2022-11-14T05:41:22.074Z,57.37
2022-11-14T05:44:13.657Z,57.53
2022-11-14T05:46:59.882Z,57.34
2022-11-14T05:49:49.056Z,57.47
2022-11-14T05:52:35.318Z,57.21
2022-11-14T05:55:24.938Z,57.44
2022-11-14T05:58:11.234Z,57.45
2022-11-14T06:01:09.690Z,57.50
2022-11-14T06:03:56.241Z,57.29
2022-11-14T06:06:42.391Z,57.31
2022-11-14T06:09:29.147Z,57.44
2022-11-14T06:12:15.401Z,57.30
2022-11-14T06:15:01.565Z,57.28
2022-11-14T06:17:48.093Z,57.15
2022-11-14T06:20:34.588Z,57.09
2022-11-14T06:23:24.749Z,56.88
2022-11-14T06:26:23.492Z,57.13
2022-11-14T06:29:10.682Z,56.93
2022-11-14T06:31:57.268Z,56.70
2022-11-14T06:34:43.267Z,56.82
2022-11-14T06:37:33.437Z,56.78
2022-11-14T06:40:20.223Z,56.90
2022-11-14T06:43:06.407Z,56.73
2022-11-14T06:45:55.229Z,56.54
2022-11-14T06:48:42.978Z,56.53
2022-11-14T06:51:29.112Z,55.70
2022-11-14T06:54:15.604Z,55.68
2022-11-14T06:57:01.836Z,55.70
2022-11-14T06:59:49.266Z,55.45
2022-11-14T07:02:35.893Z,55.67
2022-11-14T07:05:21.938Z,55.63
2022-11-14T07:08:08.110Z,55.64
2022-11-14T07:10:54.468Z,55.58
2022-11-14T07:13:40.594Z,56.48
2022-11-14T07:16:33.168Z,56.42
2022-11-14T07:19:19.179Z,56.09
2022-11-14T07:22:06.325Z,55.75
2022-11-14T07:24:52.747Z,55.85
2022-11-14T07:27:39.118Z,55.77
2022-11-14T07:30:27.183Z,55.17
2022-11-14T07:33:13.365Z,54.90
2022-11-14T07:35:59.932Z,54.77
2022-11-14T07:38:46.492Z,55.19
2022-11-14T07:41:32.878Z,55.03
2022-11-14T07:44:19.209Z,54.82
2022-11-14T07:47:05.917Z,55.04
2022-11-14T07:49:52.320Z,54.70
2022-11-14T07:52:38.453Z,54.31
2022-11-14T07:55:25.130Z,54.41
2022-11-14T07:58:12.160Z,54.30
2022-11-14T08:01:02.732Z,54.79
2022-11-14T08:03:49.345Z,54.77
2022-11-14T08:06:35.515Z,54.51
2022-11-14T08:09:23.410Z,54.57
2022-11-14T08:12:10.697Z,54.98
2022-11-14T08:14:56.861Z,54.82
2022-11-14T08:17:43.377Z,55.10
2022-11-14T08:20:30.557Z,54.65
2022-11-14T08:23:16.870Z,54.98
2022-11-14T08:26:03.341Z,54.95
2022-11-14T08:28:54.387Z,55.24
2022-11-14T08:31:40.614Z,55.57
2022-11-14T08:34:26.799Z,55.32
2022-11-14T08:37:12.883Z,55.65
2022-11-14T08:39:59.477Z,55.17
2022-11-14T08:42:46.168Z,54.91
2022-11-14T08:45:32.313Z,54.77
2022-11-14T08:48:18.956Z,54.88
2022-11-14T08:51:07.071Z,54.92
2022-11-14T08:53:53.289Z,54.70
2022-11-14T08:56:39.686Z,54.77
2022-11-14T08:59:25.793Z,54.92
2022-11-14T09:02:13.791Z,55.17
2022-11-14T09:05:00.428Z,54.95
2022-11-14T09:07:46.921Z,55.10
2022-11-14T09:10:34.962Z,54.87
2022-11-14T09:13:22.086Z,54.87
